sensor_id;sensor_type;location;lat;lon;timestamp;pressure;altitude;pressure_sealevel;temperature;humidity
72395;BME280;60384;48.152;11.614;2023-02-19T00:00:08;96106.75;;;12.23;59.25
72395;BME280;60384;48.152;11.614;2023-02-19T00:03:13;96103.28;;;12.23;59.02
72395;BME280;60384;48.152;11.614;2023-02-19T00:06:15;96107.06;;;12.22;58.66
72395;BME280;60384;48.152;11.614;2023-02-19T00:09:18;96099.34;;;12.20;58.43
72395;BME280;60384;48.152;11.614;2023-02-19T00:12:22;96090.50;;;12.20;59.01
72395;BME280;60384;48.152;11.614;2023-02-19T00:15:24;96099.69;;;12.19;59.21
72395;BME280;60384;48.152;11.614;2023-02-19T00:18:25;96096.22;;;12.18;58.87
72395;BME280;60384;48.152;11.614;2023-02-19T00:21:28;96085.50;;;12.18;58.95
72395;BME280;60384;48.152;11.614;2023-02-19T00:24:30;96087.69;;;12.16;59.38
72395;BME280;60384;48.152;11.614;2023-02-19T00:27:33;96086.91;;;12.16;59.02
72395;BME280;60384;48.152;11.614;2023-02-19T00:30:35;96089.09;;;12.14;58.51
72395;BME280;60384;48.152;11.614;2023-02-19T00:33:37;96076.03;;;12.12;59.58
72395;BME280;60384;48.152;11.614;2023-02-19T00:36:40;96088.94;;;12.10;58.87
72395;BME280;60384;48.152;11.614;2023-02-19T00:39:42;96080.91;;;12.10;58.54
72395;BME280;60384;48.152;11.614;2023-02-19T00:42:45;96084.38;;;12.11;58.64
72395;BME280;60384;48.152;11.614;2023-02-19T00:45:50;96076.66;;;12.09;59.07
72395;BME280;60384;48.152;11.614;2023-02-19T00:48:52;96076.97;;;12.08;59.11
72395;BME280;60384;48.152;11.614;2023-02-19T00:51:54;96076.22;;;12.07;59.11
72395;BME280;60384;48.152;11.614;2023-02-19T00:54:56;96071.16;;;12.06;59.13
72395;BME280;60384;48.152;11.614;2023-02-19T00:57:59;96067.38;;;12.07;58.73
72395;BME280;60384;48.152;11.614;2023-02-19T01:01:02;96068.47;;;12.06;59.34
72395;BME280;60384;48.152;11.614;2023-02-19T01:04:05;96064.22;;;12.05;58.85
72395;BME280;60384;48.152;11.614;2023-02-19T01:07:07;96060.75;;;12.04;58.78
72395;BME280;60384;48.152;11.614;2023-02-19T01:10:10;96066.09;;;12.04;58.75
72395;BME280;60384;48.152;11.614;2023-02-19T01:13:13;96059.16;;;12.03;58.92
72395;BME280;60384;48.152;11.614;2023-02-19T01:16:17;96052.72;;;12.04;58.89
72395;BME280;60384;48.152;11.614;2023-02-19T01:19:19;96057.28;;;12.04;59.21
72395;BME280;60384;48.152;11.614;2023-02-19T01:22:21;96050.34;;;12.02;59.53
72395;BME280;60384;48.152;11.614;2023-02-19T01:25:23;96055.69;;;12.02;59.16
72395;BME280;60384;48.152;11.614;2023-02-19T01:28:26;96051.13;;;12.03;58.82
72395;BME280;60384;48.152;11.614;2023-02-19T01:31:29;96042.31;;;12.02;58.69
72395;BME280;60384;48.152;11.614;2023-02-19T01:34:30;96046.44;;;12.00;59.59
72395;BME280;60384;48.152;11.614;2023-02-19T01:37:33;96048.63;;;11.98;59.29
72395;BME280;60384;48.152;11.614;2023-02-19T01:40:35;96038.72;;;11.98;59.14
72395;BME280;60384;48.152;11.614;2023-02-19T01:43:55;96027.19;;;11.98;58.73
72395;BME280;60384;48.152;11.614;2023-02-19T01:46:57;96042.03;;;11.95;59.12
72395;BME280;60384;48.152;11.614;2023-02-19T01:49:59;96028.63;;;11.95;59.68
72395;BME280;60384;48.152;11.614;2023-02-19T01:53:03;96027.84;;;11.95;58.73
72395;BME280;60384;48.152;11.614;2023-02-19T01:56:07;96024.69;;;11.93;58.87
72395;BME280;60384;48.152;11.614;2023-02-19T01:59:11;96016.97;;;11.91;59.81
72395;BME280;60384;48.152;11.614;2023-02-19T02:02:13;96023.75;;;11.89;59.66
72395;BME280;60384;48.152;11.614;2023-02-19T02:05:20;96019.81;;;11.86;58.87
72395;BME280;60384;48.152;11.614;2023-02-19T02:08:25;96011.63;;;11.83;59.01
72395;BME280;60384;48.152;11.614;2023-02-19T02:11:47;96014.47;;;11.78;58.73
72395;BME280;60384;48.152;11.614;2023-02-19T02:14:50;96011.31;;;11.76;58.85
72395;BME280;60384;48.152;11.614;2023-02-19T02:17:56;96015.69;;;11.72;59.23
72395;BME280;60384;48.152;11.614;2023-02-19T02:21:16;96007.03;;;11.66;59.49
72395;BME280;60384;48.152;11.614;2023-02-19T02:28:16;96006.53;;;11.47;59.92
72395;BME280;60384;48.152;11.614;2023-02-19T02:31:27;96002.75;;;11.39;60.49
72395;BME280;60384;48.152;11.614;2023-02-19T02:34:36;96007.31;;;11.30;60.50
72395;BME280;60384;48.152;11.614;2023-02-19T02:37:43;95991.56;;;11.20;59.08
72395;BME280;60384;48.152;11.614;2023-02-19T02:40:46;95994.84;;;11.08;60.28
72395;BME280;60384;48.152;11.614;2023-02-19T02:43:49;95998.75;;;11.02;59.86
72395;BME280;60384;48.152;11.614;2023-02-19T02:46:52;95994.94;;;10.95;59.54
72395;BME280;60384;48.152;11.614;2023-02-19T02:49:55;95985.34;;;10.85;60.37
72395;BME280;60384;48.152;11.614;2023-02-19T02:53:10;95989.38;;;10.74;60.15
72395;BME280;60384;48.152;11.614;2023-02-19T02:56:31;95981.97;;;10.62;60.57
72395;BME280;60384;48.152;11.614;2023-02-19T02:59:36;95976.56;;;10.54;59.93
72395;BME280;60384;48.152;11.614;2023-02-19T03:02:42;95975.75;;;10.45;60.37
72395;BME280;60384;48.152;11.614;2023-02-19T03:05:43;95967.72;;;10.36;61.00
72395;BME280;60384;48.152;11.614;2023-02-19T03:08:55;95954.00;;;10.29;60.58
72395;BME280;60384;48.152;11.614;2023-02-19T03:12:01;95961.38;;;10.23;60.57
72395;BME280;60384;48.152;11.614;2023-02-19T03:15:24;95969.81;;;10.17;60.55
72395;BME280;60384;48.152;11.614;2023-02-19T03:18:49;95970.19;;;10.10;60.98
72395;BME280;60384;48.152;11.614;2023-02-19T03:22:26;95959.16;;;10.03;61.32
72395;BME280;60384;48.152;11.614;2023-02-19T03:25:34;95951.00;;;10.00;61.19
72395;BME280;60384;48.152;11.614;2023-02-19T03:29:06;95952.72;;;9.95;60.77
72395;BME280;60384;48.152;11.614;2023-02-19T03:32:28;95956.25;;;9.91;61.09
72395;BME280;60384;48.152;11.614;2023-02-19T03:35:35;95956.59;;;9.89;61.12
72395;BME280;60384;48.152;11.614;2023-02-19T03:38:39;95968.34;;;9.88;61.16
72395;BME280;60384;48.152;11.614;2023-02-19T03:41:51;95959.56;;;9.88;61.33
72395;BME280;60384;48.152;11.614;2023-02-19T03:45:06;95965.81;;;9.83;61.50
72395;BME280;60384;48.152;11.614;2023-02-19T03:48:26;95951.00;;;9.77;60.77
72395;BME280;60384;48.152;11.614;2023-02-19T03:51:36;95943.94;;;9.73;61.25
72395;BME280;60384;48.152;11.614;2023-02-19T03:54:47;95954.72;;;9.68;61.41
72395;BME280;60384;48.152;11.614;2023-02-19T03:57:56;95951.38;;;9.62;61.72
72395;BME280;60384;48.152;11.614;2023-02-19T04:01:04;95943.19;;;9.59;61.42
72395;BME280;60384;48.152;11.614;2023-02-19T04:04:12;95960.59;;;9.56;61.80
72395;BME280;60384;48.152;11.614;2023-02-19T04:07:19;95947.84;;;9.53;61.74
72395;BME280;60384;48.152;11.614;2023-02-19T04:10:23;95951.13;;;9.50;62.29
72395;BME280;60384;48.152;11.614;2023-02-19T04:13:30;95941.84;;;9.47;62.29
72395;BME280;60384;48.152;11.614;2023-02-19T04:16:35;95939.97;;;9.48;62.65
72395;BME280;60384;48.152;11.614;2023-02-19T04:19:41;95941.56;;;9.49;63.36
72395;BME280;60384;48.152;11.614;2023-02-19T04:22:45;95922.41;;;9.47;63.19
72395;BME280;60384;48.152;11.614;2023-02-19T04:25:49;95921.13;;;9.44;63.28
72395;BME280;60384;48.152;11.614;2023-02-19T04:28:55;95923.81;;;9.44;63.54
72395;BME280;60384;48.152;11.614;2023-02-19T04:31:57;95942.75;;;9.43;63.70
72395;BME280;60384;48.152;11.614;2023-02-19T04:34:59;95955.31;;;9.42;63.60
72395;BME280;60384;48.152;11.614;2023-02-19T04:38:02;95937.44;;;9.43;63.87
72395;BME280;60384;48.152;11.614;2023-02-19T04:41:04;95947.00;;;9.44;64.26
72395;BME280;60384;48.152;11.614;2023-02-19T04:44:06;95956.09;;;9.43;63.96
72395;BME280;60384;48.152;11.614;2023-02-19T04:47:08;95958.47;;;9.44;63.87
72395;BME280;60384;48.152;11.614;2023-02-19T04:50:09;95953.94;;;9.45;63.63
72395;BME280;60384;48.152;11.614;2023-02-19T04:53:12;95960.00;;;9.45;63.69
72395;BME280;60384;48.152;11.614;2023-02-19T04:56:15;95954.38;;;9.47;63.66
72395;BME280;60384;48.152;11.614;2023-02-19T04:59:17;95947.19;;;9.47;63.77
72395;BME280;60384;48.152;11.614;2023-02-19T05:02:19;95953.31;;;9.48;63.76
72395;BME280;60384;48.152;11.614;2023-02-19T05:05:21;95952.22;;;9.49;63.30
72395;BME280;60384;48.152;11.614;2023-02-19T05:08:24;95959.44;;;9.48;63.67
72395;BME280;60384;48.152;11.614;2023-02-19T05:11:26;95965.56;;;9.49;63.57
72395;BME280;60384;48.152;11.614;2023-02-19T05:14:28;95962.59;;;9.50;63.60
72395;BME280;60384;48.152;11.614;2023-02-19T05:17:31;95949.25;;;9.50;63.47
72395;BME280;60384;48.152;11.614;2023-02-19T05:20:33;95945.81;;;9.50;63.40
72395;BME280;60384;48.152;11.614;2023-02-19T05:23:37;95947.38;;;9.51;63.56
72395;BME280;60384;48.152;11.614;2023-02-19T05:26:39;95959.59;;;9.52;63.68
72395;BME280;60384;48.152;11.614;2023-02-19T05:29:41;95968.41;;;9.52;63.53
72395;BME280;60384;48.152;11.614;2023-02-19T05:32:42;95969.97;;;9.53;63.44
72395;BME280;60384;48.152;11.614;2023-02-19T05:35:46;95971.84;;;9.53;63.74
72395;BME280;60384;48.152;11.614;2023-02-19T05:38:52;95975.00;;;9.55;63.41
72395;BME280;60384;48.152;11.614;2023-02-19T05:41:54;95980.06;;;9.57;63.77
72395;BME280;60384;48.152;11.614;2023-02-19T05:44:56;95981.59;;;9.58;63.34
72395;BME280;60384;48.152;11.614;2023-02-19T05:47:58;95980.06;;;9.57;63.28
72395;BME280;60384;48.152;11.614;2023-02-19T05:51:01;95989.59;;;9.58;63.16
72395;BME280;60384;48.152;11.614;2023-02-19T05:54:04;95991.19;;;9.59;63.30
72395;BME280;60384;48.152;11.614;2023-02-19T05:57:06;96006.41;;;9.58;63.38
72395;BME280;60384;48.152;11.614;2023-02-19T06:00:09;95995.44;;;9.60;63.91
72395;BME280;60384;48.152;11.614;2023-02-19T06:03:12;95994.34;;;9.61;63.56
72395;BME280;60384;48.152;11.614;2023-02-19T06:06:15;95999.69;;;9.61;63.29
72395;BME280;60384;48.152;11.614;2023-02-19T06:09:19;95999.06;;;9.64;63.44
72395;BME280;60384;48.152;11.614;2023-02-19T06:12:20;95999.88;;;9.64;63.42
72395;BME280;60384;48.152;11.614;2023-02-19T06:15:22;95999.06;;;9.64;63.51
72395;BME280;60384;48.152;11.614;2023-02-19T06:18:24;95991.88;;;9.64;63.36
72395;BME280;60384;48.152;11.614;2023-02-19T06:21:26;96011.31;;;9.65;63.51
72395;BME280;60384;48.152;11.614;2023-02-19T06:24:29;96004.91;;;9.66;63.22
72395;BME280;60384;48.152;11.614;2023-02-19T06:27:31;96014.50;;;9.67;63.17
72395;BME280;60384;48.152;11.614;2023-02-19T06:30:33;96018.41;;;9.69;63.13
72395;BME280;60384;48.152;11.614;2023-02-19T06:33:36;96022.66;;;9.70;63.25
72395;BME280;60384;48.152;11.614;2023-02-19T06:36:39;96015.16;;;9.72;62.80
72395;BME280;60384;48.152;11.614;2023-02-19T06:39:43;96032.44;;;9.75;62.89
72395;BME280;60384;48.152;11.614;2023-02-19T06:42:44;96040.13;;;9.76;63.09
72395;BME280;60384;48.152;11.614;2023-02-19T06:45:46;96035.59;;;9.77;63.16
72395;BME280;60384;48.152;11.614;2023-02-19T06:48:48;96036.88;;;9.79;62.98
72395;BME280;60384;48.152;11.614;2023-02-19T06:51:50;96039.22;;;9.81;62.77
72395;BME280;60384;48.152;11.614;2023-02-19T06:54:53;96075.66;;;9.85;62.91
72395;BME280;60384;48.152;11.614;2023-02-19T06:57:55;96048.69;;;9.87;63.29
72395;BME280;60384;48.152;11.614;2023-02-19T07:00:58;96053.91;;;9.92;63.15
72395;BME280;60384;48.152;11.614;2023-02-19T07:03:59;96048.44;;;9.97;63.22
72395;BME280;60384;48.152;11.614;2023-02-19T07:07:04;96070.47;;;10.03;62.83
72395;BME280;60384;48.152;11.614;2023-02-19T07:10:08;96074.59;;;10.09;63.08
72395;BME280;60384;48.152;11.614;2023-02-19T07:13:09;96077.16;;;10.14;62.55
72395;BME280;60384;48.152;11.614;2023-02-19T07:16:12;96082.41;;;10.19;62.81
72395;BME280;60384;48.152;11.614;2023-02-19T07:19:14;96085.56;;;10.21;62.16
72395;BME280;60384;48.152;11.614;2023-02-19T07:22:16;96082.88;;;10.21;63.07
72395;BME280;60384;48.152;11.614;2023-02-19T07:25:19;96087.63;;;10.24;62.84
72395;BME280;60384;48.152;11.614;2023-02-19T07:28:21;96086.84;;;10.23;62.59
72395;BME280;60384;48.152;11.614;2023-02-19T07:31:23;96098.00;;;10.25;62.53
72395;BME280;60384;48.152;11.614;2023-02-19T07:34:25;96092.66;;;10.25;62.45
72395;BME280;60384;48.152;11.614;2023-02-19T07:37:27;96105.72;;;10.27;63.11
72395;BME280;60384;48.152;11.614;2023-02-19T07:40:30;96097.09;;;10.30;63.13
72395;BME280;60384;48.152;11.614;2023-02-19T07:43:33;96102.91;;;10.32;62.63
72395;BME280;60384;48.152;11.614;2023-02-19T07:46:35;96114.88;;;10.34;63.14
72395;BME280;60384;48.152;11.614;2023-02-19T07:49:37;96116.75;;;10.34;62.64
72395;BME280;60384;48.152;11.614;2023-02-19T07:52:39;96127.94;;;10.36;62.33
72395;BME280;60384;48.152;11.614;2023-02-19T07:55:42;96121.00;;;10.35;63.19
72395;BME280;60384;48.152;11.614;2023-02-19T07:58:44;96125.56;;;10.34;62.47
72395;BME280;60384;48.152;11.614;2023-02-19T08:01:46;96135.44;;;10.34;62.53
72395;BME280;60384;48.152;11.614;2023-02-19T08:05:05;96133.56;;;10.34;63.01
72395;BME280;60384;48.152;11.614;2023-02-19T08:08:10;96156.69;;;10.39;63.28
72395;BME280;60384;48.152;11.614;2023-02-19T08:11:14;96153.44;;;10.42;62.94
72395;BME280;60384;48.152;11.614;2023-02-19T08:14:32;96155.00;;;10.43;62.17
72395;BME280;60384;48.152;11.614;2023-02-19T08:17:34;96160.22;;;10.48;63.30
72395;BME280;60384;48.152;11.614;2023-02-19T08:20:36;96159.13;;;10.49;63.18
72395;BME280;60384;48.152;11.614;2023-02-19T08:23:38;96164.97;;;10.51;62.77
72395;BME280;60384;48.152;11.614;2023-02-19T08:26:42;96169.69;;;10.54;63.14
72395;BME280;60384;48.152;11.614;2023-02-19T08:29:44;96166.22;;;10.54;62.49
72395;BME280;60384;48.152;11.614;2023-02-19T08:32:45;96170.00;;;10.53;62.49
72395;BME280;60384;48.152;11.614;2023-02-19T08:35:47;96170.97;;;10.57;62.67
72395;BME280;60384;48.152;11.614;2023-02-19T08:38:49;96162.16;;;10.56;62.65
72395;BME280;60384;48.152;11.614;2023-02-19T08:41:52;96177.91;;;10.58;62.88
72395;BME280;60384;48.152;11.614;2023-02-19T08:44:54;96161.75;;;10.63;62.54
72395;BME280;60384;48.152;11.614;2023-02-19T08:47:56;96174.97;;;10.68;62.59
72395;BME280;60384;48.152;11.614;2023-02-19T08:50:59;96183.16;;;10.71;62.27
72395;BME280;60384;48.152;11.614;2023-02-19T08:54:03;96196.22;;;10.73;62.65
72395;BME280;60384;48.152;11.614;2023-02-19T08:57:06;96188.50;;;10.71;62.42
72395;BME280;60384;48.152;11.614;2023-02-19T09:00:09;96194.19;;;10.70;62.11
72395;BME280;60384;48.152;11.614;2023-02-19T09:03:11;96189.41;;;10.67;63.17
72395;BME280;60384;48.152;11.614;2023-02-19T09:06:15;96200.41;;;10.65;62.53
72395;BME280;60384;48.152;11.614;2023-02-19T09:09:17;96213.47;;;10.67;62.24
72395;BME280;60384;48.152;11.614;2023-02-19T09:12:20;96205.16;;;10.68;62.15
72395;BME280;60384;48.152;11.614;2023-02-19T09:15:22;96197.94;;;10.69;63.18
72395;BME280;60384;48.152;11.614;2023-02-19T09:18:24;96204.66;;;10.66;62.05
72395;BME280;60384;48.152;11.614;2023-02-19T09:21:26;96204.19;;;10.64;63.34
72395;BME280;60384;48.152;11.614;2023-02-19T09:24:28;96209.53;;;10.64;62.46
72395;BME280;60384;48.152;11.614;2023-02-19T09:27:31;96220.81;;;10.61;63.22
72395;BME280;60384;48.152;11.614;2023-02-19T09:30:33;96210.75;;;10.58;62.85
72395;BME280;60384;48.152;11.614;2023-02-19T09:33:35;96208.88;;;10.59;63.00
72395;BME280;60384;48.152;11.614;2023-02-19T09:36:37;96210.75;;;10.58;62.37
72395;BME280;60384;48.152;11.614;2023-02-19T09:39:39;96223.91;;;10.55;62.81
72395;BME280;60384;48.152;11.614;2023-02-19T09:42:42;96228.44;;;10.54;62.71
72395;BME280;60384;48.152;11.614;2023-02-19T09:45:45;96228.91;;;10.48;63.09
72395;BME280;60384;48.152;11.614;2023-02-19T09:48:47;96239.47;;;10.39;62.29
72395;BME280;60384;48.152;11.614;2023-02-19T09:51:51;96244.44;;;10.32;62.25
72395;BME280;60384;48.152;11.614;2023-02-19T09:54:58;96234.97;;;10.26;63.01
72395;BME280;60384;48.152;11.614;2023-02-19T09:58:15;96226.47;;;10.24;62.27
72395;BME280;60384;48.152;11.614;2023-02-19T10:01:18;96241.19;;;10.21;63.19
72395;BME280;60384;48.152;11.614;2023-02-19T10:04:20;96236.94;;;10.20;62.91
72395;BME280;60384;48.152;11.614;2023-02-19T10:07:24;96242.97;;;10.26;63.04
72395;BME280;60384;48.152;11.614;2023-02-19T10:10:29;96227.66;;;10.54;62.18
72395;BME280;60384;48.152;11.614;2023-02-19T10:13:35;96225.78;;;11.21;59.60
72395;BME280;60384;48.152;11.614;2023-02-19T10:16:39;96226.72;;;11.87;58.93
72395;BME280;60384;48.152;11.614;2023-02-19T10:19:42;96222.69;;;12.15;57.71
72395;BME280;60384;48.152;11.614;2023-02-19T10:22:44;96224.63;;;12.49;57.30
72395;BME280;60384;48.152;11.614;2023-02-19T10:25:50;96220.06;;;12.50;57.91
72395;BME280;60384;48.152;11.614;2023-02-19T10:28:55;96223.53;;;12.67;58.17
72395;BME280;60384;48.152;11.614;2023-02-19T10:32:13;96244.03;;;12.89;57.95
72395;BME280;60384;48.152;11.614;2023-02-19T10:35:16;96254.13;;;12.92;58.14
72395;BME280;60384;48.152;11.614;2023-02-19T10:38:19;96230.16;;;13.13;57.87
72395;BME280;60384;48.152;11.614;2023-02-19T10:41:24;96236.16;;;13.65;56.42
72395;BME280;60384;48.152;11.614;2023-02-19T10:44:30;96238.81;;;13.74;56.74
72395;BME280;60384;48.152;11.614;2023-02-19T10:47:35;96256.75;;;14.20;56.46
72395;BME280;60384;48.152;11.614;2023-02-19T10:50:37;96238.94;;;14.65;55.28
72395;BME280;60384;48.152;11.614;2023-02-19T10:53:47;96223.19;;;14.97;54.97
72395;BME280;60384;48.152;11.614;2023-02-19T10:56:49;96216.16;;;15.37;54.66
72395;BME280;60384;48.152;11.614;2023-02-19T10:59:55;96226.47;;;16.04;53.23
72395;BME280;60384;48.152;11.614;2023-02-19T11:03:18;96213.22;;;17.04;51.32
72395;BME280;60384;48.152;11.614;2023-02-19T11:06:24;96231.13;;;18.14;49.16
72395;BME280;60384;48.152;11.614;2023-02-19T11:09:31;96222.34;;;17.86;49.62
72395;BME280;60384;48.152;11.614;2023-02-19T11:12:34;96216.31;;;16.62;52.50
72395;BME280;60384;48.152;11.614;2023-02-19T11:15:37;96219.94;;;15.36;55.18
72395;BME280;60384;48.152;11.614;2023-02-19T11:18:39;96219.53;;;14.39;57.17
72395;BME280;60384;48.152;11.614;2023-02-19T11:21:42;96221.69;;;13.87;57.87
72395;BME280;60384;48.152;11.614;2023-02-19T11:24:47;96225.13;;;13.58;58.86
72395;BME280;60384;48.152;11.614;2023-02-19T11:27:54;96222.19;;;13.34;59.02
72395;BME280;60384;48.152;11.614;2023-02-19T11:31:13;96236.31;;;13.13;59.53
72395;BME280;60384;48.152;11.614;2023-02-19T11:34:27;96240.88;;;12.96;59.37
72395;BME280;60384;48.152;11.614;2023-02-19T11:37:30;96230.31;;;12.82;60.05
72395;BME280;60384;48.152;11.614;2023-02-19T11:40:39;96233.16;;;12.68;60.08
72395;BME280;60384;48.152;11.614;2023-02-19T11:43:58;96238.34;;;12.56;59.64
72395;BME280;60384;48.152;11.614;2023-02-19T11:47:28;96246.22;;;12.44;59.50
72395;BME280;60384;48.152;11.614;2023-02-19T11:50:48;96249.97;;;12.26;60.23
72395;BME280;60384;48.152;11.614;2023-02-19T11:53:59;96248.81;;;12.01;60.80
72395;BME280;60384;48.152;11.614;2023-02-19T11:57:11;96248.28;;;11.82;60.17
72395;BME280;60384;48.152;11.614;2023-02-19T12:00:34;96249.13;;;11.69;60.64
72395;BME280;60384;48.152;11.614;2023-02-19T12:03:59;96252.09;;;11.89;60.88
72395;BME280;60384;48.152;11.614;2023-02-19T12:07:18;96237.84;;;12.37;59.67
72395;BME280;60384;48.152;11.614;2023-02-19T12:10:27;96243.03;;;12.25;59.57
72395;BME280;60384;48.152;11.614;2023-02-19T12:13:47;96251.25;;;12.28;59.42
72395;BME280;60384;48.152;11.614;2023-02-19T12:16:53;96236.44;;;12.22;60.13
72395;BME280;60384;48.152;11.614;2023-02-19T12:20:13;96245.09;;;12.28;60.04
72395;BME280;60384;48.152;11.614;2023-02-19T12:27:18;96244.03;;;12.46;59.75
72395;BME280;60384;48.152;11.614;2023-02-19T12:33:54;96250.78;;;13.38;57.73
72395;BME280;60384;48.152;11.614;2023-02-19T12:37:15;96251.28;;;13.32;57.93
72395;BME280;60384;48.152;11.614;2023-02-19T12:40:32;96260.13;;;13.23;58.34
72395;BME280;60384;48.152;11.614;2023-02-19T12:43:39;96280.16;;;12.92;59.08
72395;BME280;60384;48.152;11.614;2023-02-19T12:46:47;96281.38;;;12.60;59.20
72395;BME280;60384;48.152;11.614;2023-02-19T12:49:57;96286.88;;;12.37;60.15
72395;BME280;60384;48.152;11.614;2023-02-19T12:53:07;96293.78;;;12.21;59.67
72395;BME280;60384;48.152;11.614;2023-02-19T12:56:17;96297.31;;;11.99;59.57
72395;BME280;60384;48.152;11.614;2023-02-19T12:59:23;96292.41;;;11.84;59.87
72395;BME280;60384;48.152;11.614;2023-02-19T13:02:32;96288.56;;;11.77;60.51
72395;BME280;60384;48.152;11.614;2023-02-19T13:05:41;96288.19;;;11.70;60.11
72395;BME280;60384;48.152;11.614;2023-02-19T13:08:50;96289.28;;;11.69;59.62
72395;BME280;60384;48.152;11.614;2023-02-19T13:11:58;96287.16;;;11.79;59.27
72395;BME280;60384;48.152;11.614;2023-02-19T13:15:11;96287.16;;;11.79;59.25
72395;BME280;60384;48.152;11.614;2023-02-19T13:18:17;96314.47;;;11.68;60.26
72395;BME280;60384;48.152;11.614;2023-02-19T13:21:21;96296.00;;;11.57;60.44
72395;BME280;60384;48.152;11.614;2023-02-19T13:24:44;96291.00;;;11.65;59.41
72395;BME280;60384;48.152;11.614;2023-02-19T13:28:12;96293.94;;;11.77;59.94
72395;BME280;60384;48.152;11.614;2023-02-19T13:31:52;96289.53;;;11.81;60.02
72395;BME280;60384;48.152;11.614;2023-02-19T13:35:11;96284.38;;;11.84;60.11
72395;BME280;60384;48.152;11.614;2023-02-19T13:38:17;96275.69;;;11.87;59.49
72395;BME280;60384;48.152;11.614;2023-02-19T13:41:26;96260.91;;;11.90;59.09
72395;BME280;60384;48.152;11.614;2023-02-19T13:44:30;96258.25;;;11.98;59.09
72395;BME280;60384;48.152;11.614;2023-02-19T13:47:47;96266.00;;;12.00;59.29
72395;BME280;60384;48.152;11.614;2023-02-19T13:50:50;96267.22;;;11.94;59.74
72395;BME280;60384;48.152;11.614;2023-02-19T13:54:25;96270.19;;;11.84;59.98
72395;BME280;60384;48.152;11.614;2023-02-19T13:57:29;96281.63;;;11.76;59.99
72395;BME280;60384;48.152;11.614;2023-02-19T14:00:47;96292.75;;;11.69;59.90
72395;BME280;60384;48.152;11.614;2023-02-19T14:03:54;96276.53;;;11.66;60.14
72395;BME280;60384;48.152;11.614;2023-02-19T14:07:46;96272.56;;;11.63;59.33
72395;BME280;60384;48.152;11.614;2023-02-19T14:10:53;96277.63;;;11.65;59.85
72395;BME280;60384;48.152;11.614;2023-02-19T14:13:59;96275.44;;;11.67;59.77
72395;BME280;60384;48.152;11.614;2023-02-19T14:17:25;96291.31;;;11.63;59.70
72395;BME280;60384;48.152;11.614;2023-02-19T14:20:41;96296.78;;;11.58;59.31
72395;BME280;60384;48.152;11.614;2023-02-19T14:23:50;96274.59;;;11.57;59.47
72395;BME280;60384;48.152;11.614;2023-02-19T14:26:55;96287.94;;;11.49;60.06
72395;BME280;60384;48.152;11.614;2023-02-19T14:30:00;96294.81;;;11.41;60.58
72395;BME280;60384;48.152;11.614;2023-02-19T14:33:03;96305.81;;;11.40;60.01
72395;BME280;60384;48.152;11.614;2023-02-19T14:36:17;96297.75;;;11.31;60.31
72395;BME280;60384;48.152;11.614;2023-02-19T14:39:22;96315.16;;;11.29;59.78
72395;BME280;60384;48.152;11.614;2023-02-19T14:42:26;96302.41;;;11.26;60.65
72395;BME280;60384;48.152;11.614;2023-02-19T14:45:39;96309.94;;;11.24;59.75
72395;BME280;60384;48.152;11.614;2023-02-19T14:48:44;96307.09;;;11.20;59.98
72395;BME280;60384;48.152;11.614;2023-02-19T14:51:50;96303.34;;;11.21;59.62
72395;BME280;60384;48.152;11.614;2023-02-19T14:54:54;96324.25;;;11.19;60.20
72395;BME280;60384;48.152;11.614;2023-02-19T14:57:59;96316.22;;;11.19;60.90
72395;BME280;60384;48.152;11.614;2023-02-19T15:01:03;96309.09;;;11.14;60.46
72395;BME280;60384;48.152;11.614;2023-02-19T15:04:21;96321.81;;;11.09;60.38
72395;BME280;60384;48.152;11.614;2023-02-19T15:07:25;96324.78;;;11.07;60.37
72395;BME280;60384;48.152;11.614;2023-02-19T15:10:31;96314.88;;;11.08;60.55
72395;BME280;60384;48.152;11.614;2023-02-19T15:13:34;96327.44;;;11.07;59.66
72395;BME280;60384;48.152;11.614;2023-02-19T15:16:38;96323.19;;;11.06;61.02
72395;BME280;60384;48.152;11.614;2023-02-19T15:19:42;96331.53;;;11.05;60.12
72395;BME280;60384;48.152;11.614;2023-02-19T15:22:44;96336.88;;;11.05;60.52
72395;BME280;60384;48.152;11.614;2023-02-19T15:25:46;96326.19;;;11.05;60.13
72395;BME280;60384;48.152;11.614;2023-02-19T15:28:56;96356.69;;;11.04;60.11
72395;BME280;60384;48.152;11.614;2023-02-19T15:32:00;96362.63;;;11.01;60.16
72395;BME280;60384;48.152;11.614;2023-02-19T15:35:04;96371.72;;;11.00;60.40
72395;BME280;60384;48.152;11.614;2023-02-19T15:38:09;96372.53;;;11.00;60.44
72395;BME280;60384;48.152;11.614;2023-02-19T15:41:18;96360.25;;;10.99;59.77
72395;BME280;60384;48.152;11.614;2023-02-19T15:44:30;96359.94;;;11.01;60.22
72395;BME280;60384;48.152;11.614;2023-02-19T15:47:36;96360.56;;;10.98;59.95
72395;BME280;60384;48.152;11.614;2023-02-19T15:50:43;96350.00;;;10.93;59.56
72395;BME280;60384;48.152;11.614;2023-02-19T15:53:49;96358.00;;;10.93;61.01
72395;BME280;60384;48.152;11.614;2023-02-19T15:56:56;96352.78;;;10.88;60.17
72395;BME280;60384;48.152;11.614;2023-02-19T16:00:04;96356.31;;;10.83;60.50
72395;BME280;60384;48.152;11.614;2023-02-19T16:03:16;96344.16;;;10.77;60.37
72395;BME280;60384;48.152;11.614;2023-02-19T16:06:20;96348.25;;;10.74;60.93
72395;BME280;60384;48.152;11.614;2023-02-19T16:09:27;96347.28;;;10.70;60.61
72395;BME280;60384;48.152;11.614;2023-02-19T16:12:30;96348.16;;;10.66;60.51
72395;BME280;60384;48.152;11.614;2023-02-19T16:15:32;96347.47;;;10.60;60.61
72395;BME280;60384;48.152;11.614;2023-02-19T16:18:36;96346.50;;;10.56;60.38
72395;BME280;60384;48.152;11.614;2023-02-19T16:21:41;96363.59;;;10.55;60.45
72395;BME280;60384;48.152;11.614;2023-02-19T16:24:45;96377.75;;;10.56;60.03
72395;BME280;60384;48.152;11.614;2023-02-19T16:27:47;96375.38;;;10.54;60.61